Hernando, MS (38632)

3:14 PM CST on December 26, 2014 (GMT -0600)
Northwood Hills | Change Station
CLOSE
Current Station
Personal Weather Station
Location: Hernando, MS
Elevation: 370 ft
Nearby Weather Stations

Elev 370 ft 34.83 °N, 90.00 °W | Updated 2 seconds ago

Mostly Cloudy
Mostly Cloudy
52.9 °F
Feels Like 52.9 °F
N
1.0
Wind Variable Wind from South
Gusts 11.0 mph

Today
High -- | Low -- °F
--% Chance of Precip.
Yesterday
High -- | Low -- °F
Precip. -- in
7:05 AM 4:55 PM
Waxing Crescent, 29% visible
Pressure 30.15 in
Visibility 10.0 miles
Clouds Few 6000 ft
Mostly Cloudy 18000 ft
Dew Point 37 °F
Humidity 55%
Rainfall 0.00 in
Snow Depth Not available.
UV 1 out of 12
Pollen .10 out of 12
Air Quality Not available.
Flu Activity Not available.
METAR KMEM 262054Z 15012KT 10SM FEW060 BKN180 13/01 A3015 RMK AO2 SLP208 T01280011 58021 $

More Conditions Fewer Conditions

Pressure 30.15 in
Visibility 10.0 miles
Clouds Few 6000 ft
Mostly Cloudy 18000 ft
Dew Point 37 °F
Humidity 55%
Rainfall 0.00 in
Snow Depth Not available.
UV 1 out of 12
Pollen .10 out of 12
Air Quality Not available.
Flu Activity Not available.
METAR KMEM 262054Z 15012KT 10SM FEW060 BKN180 13/01 A3015 RMK AO2 SLP208 T01280011 58021 $

More Conditions Fewer Conditions

10-Day Weather Forecast

Almanac

Astronomy

Dec. 26, 2014 Rise Set
Actual Time
Civil Twilight
Nautical Twilight
Astronomical Twilight
Moon
Length of Visible Light
Length of Day
Tomorrow will be .
, % of the Moon is Illuminated

Today's Extremes

State Highs State Lows

Community

WunderPhotos

Upload Photos

1,780,716 photos uploaded!

WunderBlogs® & News

Nearby

Air Quality

  Air Quality AQ Index Pollutant
Not available.

Snow Depth

Station Depth Elevation

Earthquake Activity

City Distance Mag. Time & Date
Minimum magnitude displayed is 2.5.

Coastal Water Temperatures

Place Temperature

Nearby Weather Stations